Terminal Aerodrome Forecast
Issued by NWS

Home | Current Version | Previous Version | Text Only | Print | Product List | Glossary On
Versions: 1 2 3 4 5 6 7 8 9 10 11 12 13 14 15 16 17 18 19
234
FTUS43 KILX 101733
TAFBMI
TAF
KBMI 101733Z 1018/1118 21006KT P6SM OVC060
     FM102200 16006KT P6SM VCSH OVC035
     FM110200 14009KT P6SM OVC035
     FM111200 16013KT P6SM -SN OVC025
     FM111600 17014KT 3SM -SN BR OVC015=

USA.gov is the U.S. government's official web portal to all federal, state and local government web resources and services.